sensor_id;sensor_type;location;lat;lon;timestamp;temperature;humidity
18317;DHT22;9284;52.298;21.164;2023-02-15T00:00:08;2.30;99.90
18317;DHT22;9284;52.298;21.164;2023-02-15T00:02:38;2.40;99.90
18317;DHT22;9284;52.298;21.164;2023-02-15T00:05:08;2.40;99.90
18317;DHT22;9284;52.298;21.164;2023-02-15T00:07:37;2.40;99.90
18317;DHT22;9284;52.298;21.164;2023-02-15T00:10:07;2.40;99.90
18317;DHT22;9284;52.298;21.164;2023-02-15T00:12:35;2.30;99.90
18317;DHT22;9284;52.298;21.164;2023-02-15T00:15:03;2.30;99.90
18317;DHT22;9284;52.298;21.164;2023-02-15T00:17:32;2.30;99.90
18317;DHT22;9284;52.298;21.164;2023-02-15T00:20:00;2.30;99.90
18317;DHT22;9284;52.298;21.164;2023-02-15T00:22:29;2.50;99.90
18317;DHT22;9284;52.298;21.164;2023-02-15T00:24:59;2.40;99.90
18317;DHT22;9284;52.298;21.164;2023-02-15T00:27:27;2.40;99.90
18317;DHT22;9284;52.298;21.164;2023-02-15T00:29:55;2.40;99.90
18317;DHT22;9284;52.298;21.164;2023-02-15T00:32:24;2.40;99.90
18317;DHT22;9284;52.298;21.164;2023-02-15T00:34:52;2.40;99.90
18317;DHT22;9284;52.298;21.164;2023-02-15T00:37:20;2.40;99.90
18317;DHT22;9284;52.298;21.164;2023-02-15T00:39:49;2.50;99.90
18317;DHT22;9284;52.298;21.164;2023-02-15T00:42:20;2.50;99.90
18317;DHT22;9284;52.298;21.164;2023-02-15T00:44:48;2.50;99.90
18317;DHT22;9284;52.298;21.164;2023-02-15T00:47:16;2.50;99.90
18317;DHT22;9284;52.298;21.164;2023-02-15T00:49:45;2.50;99.90
18317;DHT22;9284;52.298;21.164;2023-02-15T00:52:13;2.50;99.90
18317;DHT22;9284;52.298;21.164;2023-02-15T00:54:41;2.50;99.90
18317;DHT22;9284;52.298;21.164;2023-02-15T00:57:10;2.50;99.90
18317;DHT22;9284;52.298;21.164;2023-02-15T00:59:40;2.50;99.90
18317;DHT22;9284;52.298;21.164;2023-02-15T01:02:09;2.50;99.90
18317;DHT22;9284;52.298;21.164;2023-02-15T01:04:37;2.50;99.90
18317;DHT22;9284;52.298;21.164;2023-02-15T01:07:05;2.50;99.90
18317;DHT22;9284;52.298;21.164;2023-02-15T01:09:33;2.60;99.90
18317;DHT22;9284;52.298;21.164;2023-02-15T01:12:02;2.50;99.90
18317;DHT22;9284;52.298;21.164;2023-02-15T01:14:30;2.50;99.90
18317;DHT22;9284;52.298;21.164;2023-02-15T01:17:00;2.60;99.90
18317;DHT22;9284;52.298;21.164;2023-02-15T01:19:28;2.60;99.90
18317;DHT22;9284;52.298;21.164;2023-02-15T01:21:59;2.60;99.90
18317;DHT22;9284;52.298;21.164;2023-02-15T01:24:27;2.60;99.90
18317;DHT22;9284;52.298;21.164;2023-02-15T01:26:55;2.60;99.90
18317;DHT22;9284;52.298;21.164;2023-02-15T01:29:26;2.60;99.90
18317;DHT22;9284;52.298;21.164;2023-02-15T01:31:54;2.60;99.90
18317;DHT22;9284;52.298;21.164;2023-02-15T01:34:24;2.60;99.90
18317;DHT22;9284;52.298;21.164;2023-02-15T01:36:52;2.60;99.90
18317;DHT22;9284;52.298;21.164;2023-02-15T01:39:20;2.60;99.90
18317;DHT22;9284;52.298;21.164;2023-02-15T01:41:50;2.60;99.90
18317;DHT22;9284;52.298;21.164;2023-02-15T01:44:46;2.50;99.90
18317;DHT22;9284;52.298;21.164;2023-02-15T01:47:17;2.60;99.90
18317;DHT22;9284;52.298;21.164;2023-02-15T01:49:47;2.70;99.90
18317;DHT22;9284;52.298;21.164;2023-02-15T01:52:17;2.70;99.90
18317;DHT22;9284;52.298;21.164;2023-02-15T01:54:47;2.70;99.90
18317;DHT22;9284;52.298;21.164;2023-02-15T01:57:18;2.70;99.90
18317;DHT22;9284;52.298;21.164;2023-02-15T01:59:51;2.70;99.90
18317;DHT22;9284;52.298;21.164;2023-02-15T02:02:21;2.70;99.90
18317;DHT22;9284;52.298;21.164;2023-02-15T02:04:56;2.70;99.90
18317;DHT22;9284;52.298;21.164;2023-02-15T02:07:27;2.70;99.90
18317;DHT22;9284;52.298;21.164;2023-02-15T02:09:59;2.70;99.90
18317;DHT22;9284;52.298;21.164;2023-02-15T02:12:33;2.70;99.90
18317;DHT22;9284;52.298;21.164;2023-02-15T02:15:03;2.70;99.90
18317;DHT22;9284;52.298;21.164;2023-02-15T02:17:40;2.70;99.90
18317;DHT22;9284;52.298;21.164;2023-02-15T02:20:37;2.60;99.90
18317;DHT22;9284;52.298;21.164;2023-02-15T02:23:24;2.70;99.90
18317;DHT22;9284;52.298;21.164;2023-02-15T02:29:38;2.70;98.70
18317;DHT22;9284;52.298;21.164;2023-02-15T02:35:27;2.70;99.90
18317;DHT22;9284;52.298;21.164;2023-02-15T02:38:03;2.70;95.60
18317;DHT22;9284;52.298;21.164;2023-02-15T02:40:41;2.80;79.00
18317;DHT22;9284;52.298;21.164;2023-02-15T02:43:18;2.80;81.20
18317;DHT22;9284;52.298;21.164;2023-02-15T02:45:52;2.70;62.20
18317;DHT22;9284;52.298;21.164;2023-02-15T02:48:25;2.70;90.10
18317;DHT22;9284;52.298;21.164;2023-02-15T02:50:57;2.70;98.00
18317;DHT22;9284;52.298;21.164;2023-02-15T02:53:26;2.80;96.00
18317;DHT22;9284;52.298;21.164;2023-02-15T02:56:01;2.80;96.30
18317;DHT22;9284;52.298;21.164;2023-02-15T02:58:38;2.70;96.40
18317;DHT22;9284;52.298;21.164;2023-02-15T03:01:12;2.80;82.20
18317;DHT22;9284;52.298;21.164;2023-02-15T03:03:43;2.80;91.40
18317;DHT22;9284;52.298;21.164;2023-02-15T03:06:18;2.60;48.00
18317;DHT22;9284;52.298;21.164;2023-02-15T03:08:50;2.90;67.00
18317;DHT22;9284;52.298;21.164;2023-02-15T03:11:19;2.70;68.40
18317;DHT22;9284;52.298;21.164;2023-02-15T03:13:49;2.80;81.80
18317;DHT22;9284;52.298;21.164;2023-02-15T03:16:19;2.80;77.90
18317;DHT22;9284;52.298;21.164;2023-02-15T03:18:58;2.80;58.80
18317;DHT22;9284;52.298;21.164;2023-02-15T03:21:35;2.80;24.80
18317;DHT22;9284;52.298;21.164;2023-02-15T03:24:09;2.80;18.70
18317;DHT22;9284;52.298;21.164;2023-02-15T03:26:39;2.80;8.00
18317;DHT22;9284;52.298;21.164;2023-02-15T03:29:09;2.80;8.80
18317;DHT22;9284;52.298;21.164;2023-02-15T03:31:43;2.80;18.90
18317;DHT22;9284;52.298;21.164;2023-02-15T03:34:13;2.80;22.90
18317;DHT22;9284;52.298;21.164;2023-02-15T03:36:49;2.70;27.80
18317;DHT22;9284;52.298;21.164;2023-02-15T03:39:22;2.80;28.80
18317;DHT22;9284;52.298;21.164;2023-02-15T03:41:58;2.80;9.40
18317;DHT22;9284;52.298;21.164;2023-02-15T03:44:29;2.80;1.00
18317;DHT22;9284;52.298;21.164;2023-02-15T03:47:02;2.80;1.00
18317;DHT22;9284;52.298;21.164;2023-02-15T03:49:44;2.80;1.10
18317;DHT22;9284;52.298;21.164;2023-02-15T03:52:16;2.90;1.00
18317;DHT22;9284;52.298;21.164;2023-02-15T03:54:45;2.80;1.00
18317;DHT22;9284;52.298;21.164;2023-02-15T03:57:17;2.80;1.00
18317;DHT22;9284;52.298;21.164;2023-02-15T04:00:05;2.90;1.00
18317;DHT22;9284;52.298;21.164;2023-02-15T04:03:17;2.90;1.00
18317;DHT22;9284;52.298;21.164;2023-02-15T04:05:48;2.90;1.00
18317;DHT22;9284;52.298;21.164;2023-02-15T04:08:18;2.90;1.00
18317;DHT22;9284;52.298;21.164;2023-02-15T04:10:46;2.90;1.00
18317;DHT22;9284;52.298;21.164;2023-02-15T04:13:19;2.90;1.00
18317;DHT22;9284;52.298;21.164;2023-02-15T04:15:48;2.90;1.00
18317;DHT22;9284;52.298;21.164;2023-02-15T04:18:36;2.90;1.00
18317;DHT22;9284;52.298;21.164;2023-02-15T04:21:24;2.90;1.00
18317;DHT22;9284;52.298;21.164;2023-02-15T04:24:11;2.90;1.00
18317;DHT22;9284;52.298;21.164;2023-02-15T04:26:58;3.00;1.00
18317;DHT22;9284;52.298;21.164;2023-02-15T04:29:27;2.90;1.00
18317;DHT22;9284;52.298;21.164;2023-02-15T04:31:57;2.90;1.00
18317;DHT22;9284;52.298;21.164;2023-02-15T04:34:26;3.10;1.00
18317;DHT22;9284;52.298;21.164;2023-02-15T04:36:54;3.00;1.00
18317;DHT22;9284;52.298;21.164;2023-02-15T04:39:24;2.90;1.00
18317;DHT22;9284;52.298;21.164;2023-02-15T04:41:52;3.00;1.00
18317;DHT22;9284;52.298;21.164;2023-02-15T04:44:21;3.00;1.00
18317;DHT22;9284;52.298;21.164;2023-02-15T04:46:49;3.00;1.00
18317;DHT22;9284;52.298;21.164;2023-02-15T04:49:17;3.00;1.00
18317;DHT22;9284;52.298;21.164;2023-02-15T04:51:45;3.10;1.00
18317;DHT22;9284;52.298;21.164;2023-02-15T04:54:14;3.00;1.00
18317;DHT22;9284;52.298;21.164;2023-02-15T04:56:43;3.00;1.00
18317;DHT22;9284;52.298;21.164;2023-02-15T04:59:12;3.00;1.00
18317;DHT22;9284;52.298;21.164;2023-02-15T05:01:40;3.00;1.00
18317;DHT22;9284;52.298;21.164;2023-02-15T05:04:09;3.10;1.00
18317;DHT22;9284;52.298;21.164;2023-02-15T05:06:38;2.90;1.00
18317;DHT22;9284;52.298;21.164;2023-02-15T05:09:06;3.10;1.00
18317;DHT22;9284;52.298;21.164;2023-02-15T05:11:34;3.00;1.00
18317;DHT22;9284;52.298;21.164;2023-02-15T05:14:04;3.20;1.00
18317;DHT22;9284;52.298;21.164;2023-02-15T05:16:33;3.00;1.00
18317;DHT22;9284;52.298;21.164;2023-02-15T05:19:01;3.10;1.00
18317;DHT22;9284;52.298;21.164;2023-02-15T05:21:29;3.00;1.00
18317;DHT22;9284;52.298;21.164;2023-02-15T05:23:58;3.00;1.00
18317;DHT22;9284;52.298;21.164;2023-02-15T05:26:26;3.00;1.00
18317;DHT22;9284;52.298;21.164;2023-02-15T05:29:13;3.00;1.00
18317;DHT22;9284;52.298;21.164;2023-02-15T05:31:41;3.00;99.90
18317;DHT22;9284;52.298;21.164;2023-02-15T05:34:14;3.00;1.00
18317;DHT22;9284;52.298;21.164;2023-02-15T05:36:42;3.10;1.00
18317;DHT22;9284;52.298;21.164;2023-02-15T05:39:10;3.00;99.90
18317;DHT22;9284;52.298;21.164;2023-02-15T05:41:38;3.10;99.90
18317;DHT22;9284;52.298;21.164;2023-02-15T05:44:07;3.00;99.90
18317;DHT22;9284;52.298;21.164;2023-02-15T05:46:36;3.10;99.90
18317;DHT22;9284;52.298;21.164;2023-02-15T05:49:04;3.10;99.90
18317;DHT22;9284;52.298;21.164;2023-02-15T05:51:33;2.90;99.90
18317;DHT22;9284;52.298;21.164;2023-02-15T05:54:01;3.20;99.90
18317;DHT22;9284;52.298;21.164;2023-02-15T05:56:30;2.90;99.90
18317;DHT22;9284;52.298;21.164;2023-02-15T05:58:58;3.20;99.90
18317;DHT22;9284;52.298;21.164;2023-02-15T06:01:27;3.10;99.90
18317;DHT22;9284;52.298;21.164;2023-02-15T06:03:56;3.10;99.90
18317;DHT22;9284;52.298;21.164;2023-02-15T06:06:25;3.10;99.90
18317;DHT22;9284;52.298;21.164;2023-02-15T06:08:53;3.10;99.90
18317;DHT22;9284;52.298;21.164;2023-02-15T06:11:21;3.10;91.30
18317;DHT22;9284;52.298;21.164;2023-02-15T06:13:52;3.10;99.90
18317;DHT22;9284;52.298;21.164;2023-02-15T06:16:20;3.10;99.90
18317;DHT22;9284;52.298;21.164;2023-02-15T06:18:48;3.20;99.90
18317;DHT22;9284;52.298;21.164;2023-02-15T06:21:20;3.00;99.90
18317;DHT22;9284;52.298;21.164;2023-02-15T06:23:49;3.10;99.90
18317;DHT22;9284;52.298;21.164;2023-02-15T06:26:17;3.00;99.90
18317;DHT22;9284;52.298;21.164;2023-02-15T06:28:45;3.10;99.90
18317;DHT22;9284;52.298;21.164;2023-02-15T06:31:14;3.10;99.90
18317;DHT22;9284;52.298;21.164;2023-02-15T06:33:42;3.00;77.10
18317;DHT22;9284;52.298;21.164;2023-02-15T06:36:10;3.20;99.90
18317;DHT22;9284;52.298;21.164;2023-02-15T06:38:41;3.10;59.90
18317;DHT22;9284;52.298;21.164;2023-02-15T06:41:09;3.20;99.90
18317;DHT22;9284;52.298;21.164;2023-02-15T06:43:37;3.20;88.00
18317;DHT22;9284;52.298;21.164;2023-02-15T06:46:07;3.20;1.00
18317;DHT22;9284;52.298;21.164;2023-02-15T06:48:35;3.20;2.30
18317;DHT22;9284;52.298;21.164;2023-02-15T06:51:03;3.20;7.50
18317;DHT22;9284;52.298;21.164;2023-02-15T06:53:32;3.10;55.20
18317;DHT22;9284;52.298;21.164;2023-02-15T06:56:02;3.30;1.00
18317;DHT22;9284;52.298;21.164;2023-02-15T06:58:33;3.30;1.00
18317;DHT22;9284;52.298;21.164;2023-02-15T07:01:02;3.30;1.00
18317;DHT22;9284;52.298;21.164;2023-02-15T07:03:31;3.30;1.00
18317;DHT22;9284;52.298;21.164;2023-02-15T07:06:02;3.30;1.00
18317;DHT22;9284;52.298;21.164;2023-02-15T07:08:32;3.30;1.00
18317;DHT22;9284;52.298;21.164;2023-02-15T07:11:02;3.40;1.00
18317;DHT22;9284;52.298;21.164;2023-02-15T07:13:45;3.50;1.00
18317;DHT22;9284;52.298;21.164;2023-02-15T07:16:14;3.30;1.00
18317;DHT22;9284;52.298;21.164;2023-02-15T07:18:42;3.40;1.00
18317;DHT22;9284;52.298;21.164;2023-02-15T07:21:10;3.40;1.00
18317;DHT22;9284;52.298;21.164;2023-02-15T07:23:39;3.30;1.00
18317;DHT22;9284;52.298;21.164;2023-02-15T07:26:09;3.40;1.00
18317;DHT22;9284;52.298;21.164;2023-02-15T07:28:37;3.40;1.00
18317;DHT22;9284;52.298;21.164;2023-02-15T07:31:05;3.40;1.00
18317;DHT22;9284;52.298;21.164;2023-02-15T07:33:34;3.50;1.00
18317;DHT22;9284;52.298;21.164;2023-02-15T07:36:04;3.40;1.00
18317;DHT22;9284;52.298;21.164;2023-02-15T07:38:33;3.40;99.90
18317;DHT22;9284;52.298;21.164;2023-02-15T07:41:04;3.40;99.90
18317;DHT22;9284;52.298;21.164;2023-02-15T07:43:35;3.30;99.90
18317;DHT22;9284;52.298;21.164;2023-02-15T07:46:06;3.40;99.90
18317;DHT22;9284;52.298;21.164;2023-02-15T07:48:36;3.30;99.90
18317;DHT22;9284;52.298;21.164;2023-02-15T07:51:06;3.40;1.00
18317;DHT22;9284;52.298;21.164;2023-02-15T07:53:35;3.30;99.90
18317;DHT22;9284;52.298;21.164;2023-02-15T07:56:06;3.40;99.90
18317;DHT22;9284;52.298;21.164;2023-02-15T07:58:36;3.40;99.90
18317;DHT22;9284;52.298;21.164;2023-02-15T08:01:22;3.40;68.30
18317;DHT22;9284;52.298;21.164;2023-02-15T08:03:51;3.30;99.90
18317;DHT22;9284;52.298;21.164;2023-02-15T08:06:22;3.50;99.90
18317;DHT22;9284;52.298;21.164;2023-02-15T08:08:50;3.40;1.00
18317;DHT22;9284;52.298;21.164;2023-02-15T08:11:21;3.30;1.00
18317;DHT22;9284;52.298;21.164;2023-02-15T08:14:06;3.40;1.00
18317;DHT22;9284;52.298;21.164;2023-02-15T08:16:36;3.40;1.00
18317;DHT22;9284;52.298;21.164;2023-02-15T08:19:07;3.30;1.00
18317;DHT22;9284;52.298;21.164;2023-02-15T08:21:37;3.30;1.00
18317;DHT22;9284;52.298;21.164;2023-02-15T08:24:08;3.40;1.00
18317;DHT22;9284;52.298;21.164;2023-02-15T08:26:37;3.40;1.00
18317;DHT22;9284;52.298;21.164;2023-02-15T08:29:10;3.40;1.00
18317;DHT22;9284;52.298;21.164;2023-02-15T08:31:39;3.40;1.00
18317;DHT22;9284;52.298;21.164;2023-02-15T08:34:11;3.40;99.90
18317;DHT22;9284;52.298;21.164;2023-02-15T08:36:42;3.40;1.00
18317;DHT22;9284;52.298;21.164;2023-02-15T08:39:12;3.40;1.00
18317;DHT22;9284;52.298;21.164;2023-02-15T08:41:43;3.40;99.90
18317;DHT22;9284;52.298;21.164;2023-02-15T08:44:14;3.60;1.00
18317;DHT22;9284;52.298;21.164;2023-02-15T08:46:44;3.40;99.90
18317;DHT22;9284;52.298;21.164;2023-02-15T08:49:16;3.50;99.90
18317;DHT22;9284;52.298;21.164;2023-02-15T08:51:45;3.40;99.90
18317;DHT22;9284;52.298;21.164;2023-02-15T08:54:16;3.30;99.90
18317;DHT22;9284;52.298;21.164;2023-02-15T08:56:45;3.40;99.90
18317;DHT22;9284;52.298;21.164;2023-02-15T08:59:17;3.40;1.00
18317;DHT22;9284;52.298;21.164;2023-02-15T09:01:47;3.50;1.00
18317;DHT22;9284;52.298;21.164;2023-02-15T09:04:17;3.50;1.00
18317;DHT22;9284;52.298;21.164;2023-02-15T09:06:47;3.50;1.00
18317;DHT22;9284;52.298;21.164;2023-02-15T09:09:16;3.50;1.00
18317;DHT22;9284;52.298;21.164;2023-02-15T09:11:46;3.50;99.90
18317;DHT22;9284;52.298;21.164;2023-02-15T09:14:19;3.60;99.90
18317;DHT22;9284;52.298;21.164;2023-02-15T09:16:52;3.50;99.90
18317;DHT22;9284;52.298;21.164;2023-02-15T09:19:22;3.50;99.90
18317;DHT22;9284;52.298;21.164;2023-02-15T09:21:50;3.60;1.00
18317;DHT22;9284;52.298;21.164;2023-02-15T09:24:19;3.70;99.90
18317;DHT22;9284;52.298;21.164;2023-02-15T09:26:48;3.80;99.90
18317;DHT22;9284;52.298;21.164;2023-02-15T09:29:19;3.70;1.00
18317;DHT22;9284;52.298;21.164;2023-02-15T09:31:49;3.70;1.00
18317;DHT22;9284;52.298;21.164;2023-02-15T09:34:19;3.70;1.00
18317;DHT22;9284;52.298;21.164;2023-02-15T09:36:49;3.70;99.90
18317;DHT22;9284;52.298;21.164;2023-02-15T09:39:19;3.70;1.00
18317;DHT22;9284;52.298;21.164;2023-02-15T09:42:27;3.70;99.90
18317;DHT22;9284;52.298;21.164;2023-02-15T09:45:14;3.70;99.90
18317;DHT22;9284;52.298;21.164;2023-02-15T09:48:01;3.70;99.90
18317;DHT22;9284;52.298;21.164;2023-02-15T09:50:38;3.60;99.90
18317;DHT22;9284;52.298;21.164;2023-02-15T09:53:27;3.60;99.90
18317;DHT22;9284;52.298;21.164;2023-02-15T09:56:04;3.60;99.90
18317;DHT22;9284;52.298;21.164;2023-02-15T09:58:42;3.70;1.00
18317;DHT22;9284;52.298;21.164;2023-02-15T10:01:19;3.70;1.00
18317;DHT22;9284;52.298;21.164;2023-02-15T10:04:08;3.70;1.00
18317;DHT22;9284;52.298;21.164;2023-02-15T10:06:44;3.70;99.90
18317;DHT22;9284;52.298;21.164;2023-02-15T10:09:24;3.70;99.90
18317;DHT22;9284;52.298;21.164;2023-02-15T10:12:14;3.70;99.90
18317;DHT22;9284;52.298;21.164;2023-02-15T10:15:06;3.70;99.90
18317;DHT22;9284;52.298;21.164;2023-02-15T10:17:51;3.70;99.90
18317;DHT22;9284;52.298;21.164;2023-02-15T10:20:30;3.60;1.00
18317;DHT22;9284;52.298;21.164;2023-02-15T10:23:21;3.60;1.00
18317;DHT22;9284;52.298;21.164;2023-02-15T10:25:56;3.70;1.00
18317;DHT22;9284;52.298;21.164;2023-02-15T10:28:42;3.50;1.00
18317;DHT22;9284;52.298;21.164;2023-02-15T10:31:19;3.60;1.00
18317;DHT22;9284;52.298;21.164;2023-02-15T10:34:00;3.60;1.00
18317;DHT22;9284;52.298;21.164;2023-02-15T10:39:26;3.80;99.90
18317;DHT22;9284;52.298;21.164;2023-02-15T10:42:03;3.60;99.90
18317;DHT22;9284;52.298;21.164;2023-02-15T10:44:44;3.70;99.90
18317;DHT22;9284;52.298;21.164;2023-02-15T10:47:33;3.70;99.90
18317;DHT22;9284;52.298;21.164;2023-02-15T10:50:17;3.70;99.90
18317;DHT22;9284;52.298;21.164;2023-02-15T10:53:00;3.60;99.90
18317;DHT22;9284;52.298;21.164;2023-02-15T10:55:42;3.50;99.90
18317;DHT22;9284;52.298;21.164;2023-02-15T10:58:18;3.50;44.60
18317;DHT22;9284;52.298;21.164;2023-02-15T11:00:56;3.50;15.90
18317;DHT22;9284;52.298;21.164;2023-02-15T11:03:40;3.40;1.00
18317;DHT22;9284;52.298;21.164;2023-02-15T11:06:14;3.50;99.90
18317;DHT22;9284;52.298;21.164;2023-02-15T11:08:46;3.50;99.90
18317;DHT22;9284;52.298;21.164;2023-02-15T11:11:19;3.50;92.20
18317;DHT22;9284;52.298;21.164;2023-02-15T11:13:52;3.30;92.40
18317;DHT22;9284;52.298;21.164;2023-02-15T11:16:27;3.40;99.90
18317;DHT22;9284;52.298;21.164;2023-02-15T11:18:58;3.30;1.00
18317;DHT22;9284;52.298;21.164;2023-02-15T11:21:31;3.20;1.00
18317;DHT22;9284;52.298;21.164;2023-02-15T11:24:10;3.30;99.90
18317;DHT22;9284;52.298;21.164;2023-02-15T11:26:41;3.40;31.60
18317;DHT22;9284;52.298;21.164;2023-02-15T11:29:13;3.50;1.00
18317;DHT22;9284;52.298;21.164;2023-02-15T11:31:46;3.50;99.90
18317;DHT22;9284;52.298;21.164;2023-02-15T11:34:20;3.50;1.00
18317;DHT22;9284;52.298;21.164;2023-02-15T11:36:54;3.50;1.00
18317;DHT22;9284;52.298;21.164;2023-02-15T11:39:26;3.50;1.00
18317;DHT22;9284;52.298;21.164;2023-02-15T11:41:58;3.50;1.00
18317;DHT22;9284;52.298;21.164;2023-02-15T11:44:30;3.60;99.90
18317;DHT22;9284;52.298;21.164;2023-02-15T11:47:00;3.50;99.90
18317;DHT22;9284;52.298;21.164;2023-02-15T11:49:31;3.50;99.90
18317;DHT22;9284;52.298;21.164;2023-02-15T11:52:04;3.30;1.00
18317;DHT22;9284;52.298;21.164;2023-02-15T11:54:35;3.20;1.00
18317;DHT22;9284;52.298;21.164;2023-02-15T11:57:11;3.30;1.00
18317;DHT22;9284;52.298;21.164;2023-02-15T11:59:46;3.40;1.00
18317;DHT22;9284;52.298;21.164;2023-02-15T12:02:17;3.40;99.90
18317;DHT22;9284;52.298;21.164;2023-02-15T12:04:50;3.40;1.00
18317;DHT22;9284;52.298;21.164;2023-02-15T12:07:25;3.40;1.00
18317;DHT22;9284;52.298;21.164;2023-02-15T12:09:59;3.40;1.00
18317;DHT22;9284;52.298;21.164;2023-02-15T12:12:30;3.50;1.00
18317;DHT22;9284;52.298;21.164;2023-02-15T12:15:00;3.50;1.00
18317;DHT22;9284;52.298;21.164;2023-02-15T12:17:31;3.40;1.00
18317;DHT22;9284;52.298;21.164;2023-02-15T12:20:02;3.40;1.00
18317;DHT22;9284;52.298;21.164;2023-02-15T12:22:34;3.50;1.00
18317;DHT22;9284;52.298;21.164;2023-02-15T12:25:20;3.40;1.00
18317;DHT22;9284;52.298;21.164;2023-02-15T12:27:49;3.40;1.00
18317;DHT22;9284;52.298;21.164;2023-02-15T12:30:21;3.20;1.00
18317;DHT22;9284;52.298;21.164;2023-02-15T12:32:53;3.30;97.10
18317;DHT22;9284;52.298;21.164;2023-02-15T12:35:28;3.30;99.90
18317;DHT22;9284;52.298;21.164;2023-02-15T12:38:03;3.30;99.90
18317;DHT22;9284;52.298;21.164;2023-02-15T12:40:33;3.40;99.90
18317;DHT22;9284;52.298;21.164;2023-02-15T12:43:02;3.40;1.00
18317;DHT22;9284;52.298;21.164;2023-02-15T12:45:36;3.40;1.00
18317;DHT22;9284;52.298;21.164;2023-02-15T12:48:14;3.30;99.90
18317;DHT22;9284;52.298;21.164;2023-02-15T12:50:45;3.40;99.90
18317;DHT22;9284;52.298;21.164;2023-02-15T12:53:35;3.30;1.00
18317;DHT22;9284;52.298;21.164;2023-02-15T12:56:08;3.30;99.90
18317;DHT22;9284;52.298;21.164;2023-02-15T12:58:37;3.30;99.90
18317;DHT22;9284;52.298;21.164;2023-02-15T13:01:12;3.40;1.00
18317;DHT22;9284;52.298;21.164;2023-02-15T13:03:56;3.40;99.90
18317;DHT22;9284;52.298;21.164;2023-02-15T13:06:26;3.40;1.00
18317;DHT22;9284;52.298;21.164;2023-02-15T13:08:58;3.40;99.90
18317;DHT22;9284;52.298;21.164;2023-02-15T13:11:33;3.30;1.00
18317;DHT22;9284;52.298;21.164;2023-02-15T13:14:03;3.20;1.00
18317;DHT22;9284;52.298;21.164;2023-02-15T13:16:38;3.30;99.90
18317;DHT22;9284;52.298;21.164;2023-02-15T13:19:10;3.30;99.90
18317;DHT22;9284;52.298;21.164;2023-02-15T13:21:43;3.20;99.90
18317;DHT22;9284;52.298;21.164;2023-02-15T13:24:17;3.20;99.90
18317;DHT22;9284;52.298;21.164;2023-02-15T13:26:47;3.20;99.90
18317;DHT22;9284;52.298;21.164;2023-02-15T13:29:20;3.20;1.00
18317;DHT22;9284;52.298;21.164;2023-02-15T13:31:50;3.20;1.00
18317;DHT22;9284;52.298;21.164;2023-02-15T13:34:23;3.20;99.90
18317;DHT22;9284;52.298;21.164;2023-02-15T13:37:00;3.30;99.90
18317;DHT22;9284;52.298;21.164;2023-02-15T13:39:36;3.20;82.80
18317;DHT22;9284;52.298;21.164;2023-02-15T13:42:19;3.10;99.90
18317;DHT22;9284;52.298;21.164;2023-02-15T13:45:01;3.20;99.90
18317;DHT22;9284;52.298;21.164;2023-02-15T13:47:36;3.10;1.00
18317;DHT22;9284;52.298;21.164;2023-02-15T13:50:20;3.10;1.00
18317;DHT22;9284;52.298;21.164;2023-02-15T13:53:01;3.20;1.00
18317;DHT22;9284;52.298;21.164;2023-02-15T13:55:40;3.20;1.00
18317;DHT22;9284;52.298;21.164;2023-02-15T13:58:37;3.30;1.00
18317;DHT22;9284;52.298;21.164;2023-02-15T14:01:16;3.30;1.00
18317;DHT22;9284;52.298;21.164;2023-02-15T14:04:06;3.40;1.00
18317;DHT22;9284;52.298;21.164;2023-02-15T14:07:07;3.30;99.90
18317;DHT22;9284;52.298;21.164;2023-02-15T14:09:45;3.30;99.90
18317;DHT22;9284;52.298;21.164;2023-02-15T14:12:35;3.30;99.90
18317;DHT22;9284;52.298;21.164;2023-02-15T14:15:19;3.30;99.90
18317;DHT22;9284;52.298;21.164;2023-02-15T14:17:58;3.30;99.90
18317;DHT22;9284;52.298;21.164;2023-02-15T14:20:39;3.20;99.90
18317;DHT22;9284;52.298;21.164;2023-02-15T14:23:17;3.20;99.90
18317;DHT22;9284;52.298;21.164;2023-02-15T14:25:56;3.20;1.00
18317;DHT22;9284;52.298;21.164;2023-02-15T14:28:35;3.30;1.00
18317;DHT22;9284;52.298;21.164;2023-02-15T14:31:06;3.20;1.00
18317;DHT22;9284;52.298;21.164;2023-02-15T14:33:38;3.30;1.00
18317;DHT22;9284;52.298;21.164;2023-02-15T14:36:13;3.20;1.00
18317;DHT22;9284;52.298;21.164;2023-02-15T14:38:56;3.20;1.00
18317;DHT22;9284;52.298;21.164;2023-02-15T14:41:31;3.20;1.00
18317;DHT22;9284;52.298;21.164;2023-02-15T14:44:11;3.00;1.00
18317;DHT22;9284;52.298;21.164;2023-02-15T14:46:46;3.20;1.00
18317;DHT22;9284;52.298;21.164;2023-02-15T14:49:19;3.20;1.00
18317;DHT22;9284;52.298;21.164;2023-02-15T14:52:03;3.00;1.00
18317;DHT22;9284;52.298;21.164;2023-02-15T14:54:56;3.10;1.00
18317;DHT22;9284;52.298;21.164;2023-02-15T14:57:33;3.00;1.00
18317;DHT22;9284;52.298;21.164;2023-02-15T15:03:18;3.00;99.90
18317;DHT22;9284;52.298;21.164;2023-02-15T15:05:50;3.00;99.90
18317;DHT22;9284;52.298;21.164;2023-02-15T15:08:27;3.10;99.90
18317;DHT22;9284;52.298;21.164;2023-02-15T15:10:56;3.10;24.00
18317;DHT22;9284;52.298;21.164;2023-02-15T15:14:09;3.10;1.00
18317;DHT22;9284;52.298;21.164;2023-02-15T15:16:50;3.00;99.40
18317;DHT22;9284;52.298;21.164;2023-02-15T15:22:29;3.00;99.90
18317;DHT22;9284;52.298;21.164;2023-02-15T15:24:59;3.10;99.90
18317;DHT22;9284;52.298;21.164;2023-02-15T15:27:46;3.00;5.70
18317;DHT22;9284;52.298;21.164;2023-02-15T15:40:22;3.00;99.90
18317;DHT22;9284;52.298;21.164;2023-02-15T15:43:26;3.00;99.90
18317;DHT22;9284;52.298;21.164;2023-02-15T15:46:20;3.00;99.90
18317;DHT22;9284;52.298;21.164;2023-02-15T15:48:51;3.00;99.90
18317;DHT22;9284;52.298;21.164;2023-02-15T15:51:24;3.20;99.90
18317;DHT22;9284;52.298;21.164;2023-02-15T15:53:55;3.00;99.90
18317;DHT22;9284;52.298;21.164;2023-02-15T15:56:27;3.00;99.90
18317;DHT22;9284;52.298;21.164;2023-02-15T15:59:00;3.00;99.90
18317;DHT22;9284;52.298;21.164;2023-02-15T16:01:31;3.00;99.90
18317;DHT22;9284;52.298;21.164;2023-02-15T16:04:02;3.00;99.90
18317;DHT22;9284;52.298;21.164;2023-02-15T16:06:33;3.00;99.90
18317;DHT22;9284;52.298;21.164;2023-02-15T16:09:15;3.00;53.30
18317;DHT22;9284;52.298;21.164;2023-02-15T16:11:46;2.90;80.10
18317;DHT22;9284;52.298;21.164;2023-02-15T16:14:19;3.00;99.90
18317;DHT22;9284;52.298;21.164;2023-02-15T16:16:53;2.90;99.90
18317;DHT22;9284;52.298;21.164;2023-02-15T16:19:25;2.90;99.90
18317;DHT22;9284;52.298;21.164;2023-02-15T16:21:55;2.90;99.90
18317;DHT22;9284;52.298;21.164;2023-02-15T16:24:58;2.90;99.90
18317;DHT22;9284;52.298;21.164;2023-02-15T16:27:39;3.00;99.90
18317;DHT22;9284;52.298;21.164;2023-02-15T16:30:24;3.00;99.90
18317;DHT22;9284;52.298;21.164;2023-02-15T16:32:54;3.00;99.90
18317;DHT22;9284;52.298;21.164;2023-02-15T16:35:23;2.90;99.90
18317;DHT22;9284;52.298;21.164;2023-02-15T16:37:51;2.90;99.90
18317;DHT22;9284;52.298;21.164;2023-02-15T16:40:41;2.90;99.90
18317;DHT22;9284;52.298;21.164;2023-02-15T16:43:16;2.90;99.90
18317;DHT22;9284;52.298;21.164;2023-02-15T16:45:45;2.90;99.90
18317;DHT22;9284;52.298;21.164;2023-02-15T16:48:19;2.90;99.90
18317;DHT22;9284;52.298;21.164;2023-02-15T16:50:51;2.90;99.90
18317;DHT22;9284;52.298;21.164;2023-02-15T16:53:23;2.80;99.90
18317;DHT22;9284;52.298;21.164;2023-02-15T16:55:53;2.90;99.90
18317;DHT22;9284;52.298;21.164;2023-02-15T16:58:28;2.90;99.90